Time;durP1;ratioP1;P1;durP2;ratioP2;P2;SDS_P1;SDS_P2;PMS_P1;PMS_P2;Temp;Humidity;BMP_temperature;BMP_pressure;BME280_temperature;BME280_humidity;BME280_pressure;Samples;Min_cycle;Max_cycle;Signal;HPM_P1;HPM_P2
2022/07/11 00:02:01;;;;;;;42.40;40.25;;;;;;;24.50;40.80;102293.63;4955758;28;20035;-84
2022/07/11 00:04:31;;;;;;;42.53;40.22;;;;;;;24.47;40.37;102295.03;4955920;28;20555;-82
2022/07/11 00:06:57;;;;;;;46.50;43.67;;;;;;;24.45;40.46;102289.00;4955922;28;20099;-83
2022/07/11 00:09:23;;;;;;;43.05;40.95;;;;;;;24.43;41.07;102293.94;4970961;28;20055;-83
2022/07/11 00:11:48;;;;;;;43.60;41.30;;;;;;;24.41;40.74;102290.66;4955595;28;20038;-83
2022/07/11 00:14:14;;;;;;;44.35;41.95;;;;;;;24.40;40.66;102291.78;4955928;28;20039;-83
2022/07/11 00:16:40;;;;;;;42.75;40.40;;;;;;;24.38;40.88;102291.28;4954421;29;20399;-84
2022/07/11 00:19:05;;;;;;;44.03;41.83;;;;;;;24.35;40.65;102292.69;4970395;28;20027;-82
2022/07/11 00:21:31;;;;;;;43.10;41.00;;;;;;;24.34;41.00;102290.22;4954478;29;20070;-83
2022/07/11 00:23:57;;;;;;;44.00;41.67;;;;;;;24.31;41.15;102286.09;4955424;28;20070;-81
2022/07/11 00:26:22;;;;;;;44.15;41.80;;;;;;;24.30;40.79;102289.19;4955577;28;20538;-83
2022/07/11 00:28:48;;;;;;;43.85;41.50;;;;;;;24.27;40.73;102290.59;4955491;28;20101;-80
2022/07/11 00:31:13;;;;;;;44.20;41.90;;;;;;;24.26;41.22;102288.13;4956116;28;20129;-79
2022/07/11 00:33:39;;;;;;;42.53;40.42;;;;;;;24.24;41.14;102287.59;4955733;28;20027;-84
2022/07/11 00:36:04;;;;;;;44.30;42.00;;;;;;;24.22;41.44;102285.16;4955831;28;20035;-83
2022/07/11 00:38:30;;;;;;;41.15;39.05;;;;;;;24.19;40.93;102283.81;4954370;28;20365;-79
2022/07/11 00:40:55;;;;;;;43.40;41.22;;;;;;;24.17;40.95;102285.22;4954584;29;20059;-83
2022/07/11 00:43:33;;;;;;;43.60;41.22;;;;;;;24.14;41.39;102283.88;4955533;28;20468;-83
2022/07/11 00:45:58;;;;;;;41.97;39.83;;;;;;;24.11;41.06;102278.94;4956157;28;20053;-82
2022/07/11 00:48:24;;;;;;;43.70;41.42;;;;;;;24.11;41.05;102280.88;4955817;28;20516;-83
2022/07/11 00:50:50;;;;;;;45.10;42.80;;;;;;;24.08;41.03;102282.28;4955211;28;20381;-83
2022/07/11 00:53:17;;;;;;;42.88;40.55;;;;;;;24.07;41.59;102268.81;4955566;28;20031;-82
2022/07/11 00:55:42;;;;;;;42.03;39.83;;;;;;;24.04;41.50;102270.22;4957845;28;20491;-81
2022/07/11 00:58:08;;;;;;;41.88;39.47;;;;;;;24.01;41.24;102273.56;4959127;28;20023;-83
2022/07/11 01:00:33;;;;;;;43.40;40.85;;;;;;;24.00;41.63;102276.63;4957824;29;20388;-82
2022/07/11 01:02:59;;;;;;;42.67;40.47;;;;;;;23.97;41.13;102276.09;4958867;28;20506;-83
2022/07/11 01:05:24;;;;;;;41.28;39.08;;;;;;;23.96;41.80;102276.38;4959392;28;20048;-84
2022/07/11 01:07:50;;;;;;;40.50;38.50;;;;;;;23.94;41.21;102276.69;4974204;28;20039;-75
2022/07/11 01:10:15;;;;;;;41.97;39.63;;;;;;;23.92;41.83;102267.06;4959732;28;20066;-82
2022/07/11 01:12:41;;;;;;;42.60;40.42;;;;;;;23.90;41.46;102274.81;4960694;28;20031;-83
2022/07/11 01:15:07;;;;;;;42.97;40.58;;;;;;;23.88;41.44;102268.78;4965880;28;20447;-82
2022/07/11 01:17:33;;;;;;;43.05;40.47;;;;;;;23.87;41.31;102275.41;4968412;28;20103;-84
2022/07/11 01:19:58;;;;;;;42.00;39.63;;;;;;;23.84;41.43;102270.47;4967429;28;20062;-83
2022/07/11 01:22:27;;;;;;;41.85;39.55;;;;;;;23.82;41.89;102265.25;4967746;28;20031;-83
2022/07/11 01:24:54;;;;;;;42.08;39.67;;;;;;;23.80;41.46;102269.44;4968543;28;20090;-81
2022/07/11 01:27:22;;;;;;;43.42;41.00;;;;;;;23.78;41.54;102264.19;4976475;28;20050;-82
2022/07/11 01:29:48;;;;;;;40.92;38.55;;;;;;;23.75;41.59;102265.59;4979337;29;20039;-80
2022/07/11 01:32:13;;;;;;;41.20;38.90;;;;;;;23.73;42.17;102267.84;4980173;28;20031;-81
2022/07/11 01:34:39;;;;;;;42.30;39.88;;;;;;;23.71;42.00;102261.78;4980025;28;20046;-82
2022/07/11 01:37:04;;;;;;;44.13;41.72;;;;;;;23.70;41.79;102260.13;4972579;28;20051;-80
2022/07/11 01:39:30;;;;;;;41.50;39.25;;;;;;;23.67;42.01;102263.47;4971886;28;20047;-82
2022/07/11 01:41:59;;;;;;;43.15;40.85;;;;;;;23.66;42.00;102270.13;4968248;28;20031;-82
2022/07/11 01:44:25;;;;;;;41.15;38.53;;;;;;;23.64;41.74;102272.34;4972571;28;20046;-82
2022/07/11 01:46:50;;;;;;;41.22;38.92;;;;;;;23.62;41.73;102274.59;4971008;28;20047;-82
2022/07/11 01:49:16;;;;;;;41.83;39.63;;;;;;;23.60;41.85;102274.03;4970183;28;20039;-82
2022/07/11 01:51:42;;;;;;;39.47;37.08;;;;;;;23.59;42.39;102277.13;4973214;28;20046;-82
2022/07/11 01:54:07;;;;;;;43.45;41.20;;;;;;;23.57;42.32;102282.09;4989333;28;20031;-84
2022/07/11 01:56:33;;;;;;;41.83;39.65;;;;;;;23.54;42.31;102280.75;4972760;28;20050;-82
2022/07/11 01:58:59;;;;;;;41.90;39.60;;;;;;;23.53;41.94;102282.66;4969241;29;20039;-82
2022/07/11 02:01:24;;;;;;;42.97;40.35;;;;;;;23.51;42.36;102281.31;4965818;28;20031;-83
2022/07/11 02:03:50;;;;;;;41.80;38.67;;;;;;;23.49;42.05;102269.78;4960341;28;20129;-82
2022/07/11 02:06:16;;;;;;;42.35;40.10;;;;;;;23.46;42.19;102278.63;4959080;28;20031;-83
2022/07/11 02:08:41;;;;;;;41.75;39.45;;;;;;;23.45;42.45;102277.78;4957989;29;20047;-83
2022/07/11 02:11:07;;;;;;;41.97;39.65;;;;;;;23.42;42.45;102270.13;4960041;28;20472;-82
2022/07/11 02:13:33;;;;;;;41.95;39.85;;;;;;;23.40;42.16;102272.34;4959261;28;20031;-83
2022/07/11 02:15:58;;;;;;;42.25;39.85;;;;;;;23.40;42.45;102274.28;4958430;28;20174;-83
2022/07/11 02:18:24;;;;;;;43.80;41.50;;;;;;;23.38;41.97;102271.81;4958209;28;20046;-80
2022/07/11 02:20:49;;;;;;;40.78;38.65;;;;;;;23.37;42.02;102272.13;4958032;28;20082;-84
2022/07/11 02:23:16;;;;;;;43.33;40.75;;;;;;;23.33;42.74;102272.72;4957897;28;20063;-83
2022/07/11 02:25:42;;;;;;;41.53;39.08;;;;;;;23.32;42.64;102282.06;4973451;28;20031;-82
2022/07/11 02:28:08;;;;;;;41.55;39.25;;;;;;;23.29;42.28;102273.56;4957967;28;20035;-83
2022/07/11 02:30:38;;;;;;;40.55;38.25;;;;;;;23.28;42.82;102275.50;4958265;28;20495;-83
2022/07/11 02:33:04;;;;;;;42.45;40.15;;;;;;;23.25;42.50;102269.75;4957916;28;20090;-83
2022/07/11 02:35:30;;;;;;;42.50;40.00;;;;;;;23.23;42.29;102272.78;4958345;28;20040;-83
2022/07/11 02:37:55;;;;;;;41.15;38.88;;;;;;;23.22;42.19;102275.84;4957829;28;20488;-82
2022/07/11 02:40:20;;;;;;;42.38;40.22;;;;;;;23.20;42.21;102276.13;4957683;29;20039;-82
2022/07/11 02:42:46;;;;;;;40.50;38.30;;;;;;;23.18;42.87;102278.34;4958167;28;20031;-83
2022/07/11 02:45:12;;;;;;;40.15;38.05;;;;;;;23.17;42.65;102275.91;4959232;28;20037;-83
2022/07/11 02:47:39;;;;;;;40.50;38.00;;;;;;;23.14;42.91;102269.03;4957950;28;20047;-82
2022/07/11 02:50:09;;;;;;;40.90;38.50;;;;;;;23.12;42.94;102271.25;4958150;28;20098;-83
2022/07/11 02:52:35;;;;;;;39.40;37.15;;;;;;;23.11;43.00;102275.13;4958927;28;20035;-83
2022/07/11 02:55:01;;;;;;;40.08;37.90;;;;;;;23.08;42.80;102271.03;4972958;28;20476;-79
2022/07/11 02:57:27;;;;;;;41.13;38.83;;;;;;;23.07;43.01;102274.06;4959619;28;20039;-84
2022/07/11 02:59:52;;;;;;;40.28;38.00;;;;;;;23.05;42.62;102270.75;4960150;28;20031;-84
2022/07/11 03:02:18;;;;;;;40.65;38.55;;;;;;;23.03;42.59;102268.31;4960468;28;20086;-83
2022/07/11 03:04:43;;;;;;;39.08;36.75;;;;;;;23.01;43.11;102275.22;4960455;29;20095;-82
2022/07/11 03:07:08;;;;;;;40.40;38.15;;;;;;;22.99;42.47;102275.50;4959458;28;20036;-85
2022/07/11 03:09:34;;;;;;;40.78;38.60;;;;;;;22.97;43.18;102279.63;4958291;28;20051;-86
2022/07/11 03:12:01;;;;;;;39.20;37.10;;;;;;;22.95;42.96;102274.41;4958013;28;20055;-78
2022/07/11 03:14:26;;;;;;;40.08;37.70;;;;;;;22.93;43.10;102273.91;4957430;28;20032;-84
2022/07/11 03:16:52;;;;;;;38.63;36.25;;;;;;;22.92;43.26;102277.75;4956517;29;20046;-82
2022/07/11 03:19:17;;;;;;;39.97;37.88;;;;;;;22.89;42.73;102276.38;4955693;28;20031;-82
2022/07/11 03:21:43;;;;;;;38.30;36.20;;;;;;;22.87;43.20;102275.03;4972326;28;20130;-83
2022/07/11 03:24:08;;;;;;;42.17;39.33;;;;;;;22.85;42.78;102278.06;4957477;28;20074;-84
2022/07/11 03:26:33;;;;;;;36.85;35.05;;;;;;;22.84;43.32;102275.63;4958118;28;20421;-83
2022/07/11 03:28:59;;;;;;;37.72;35.72;;;;;;;22.81;42.97;102285.28;4957501;28;20058;-84
2022/07/11 03:31:24;;;;;;;37.58;35.67;;;;;;;22.79;42.83;102290.25;4956399;29;20031;-84
2022/07/11 03:33:49;;;;;;;38.03;36.05;;;;;;;22.78;42.82;102285.03;4955466;29;20110;-84
2022/07/11 03:36:15;;;;;;;38.83;36.75;;;;;;;22.76;42.87;102298.28;4956594;28;20027;-81
2022/07/11 03:38:40;;;;;;;36.40;34.40;;;;;;;22.74;42.87;102293.06;4957467;28;20114;-81
2022/07/11 03:41:06;;;;;;;37.60;35.33;;;;;;;22.73;43.46;102290.56;4956215;28;20027;-82
2022/07/11 03:43:31;;;;;;;38.20;35.90;;;;;;;22.70;43.33;102294.72;4971434;28;20438;-81
2022/07/11 03:45:57;;;;;;;37.08;35.05;;;;;;;22.68;43.01;102295.03;4954951;29;20039;-85
2022/07/11 03:48:23;;;;;;;38.85;36.67;;;;;;;22.67;43.05;102287.84;4956274;28;20031;-81
2022/07/11 03:50:48;;;;;;;35.55;33.65;;;;;;;22.66;42.99;102290.91;4956278;28;20038;-82
2022/07/11 03:53:14;;;;;;;37.58;35.30;;;;;;;22.65;42.99;102297.50;4956045;28;20085;-84
2022/07/11 03:55:40;;;;;;;39.47;36.58;;;;;;;22.63;43.45;102291.50;4955970;28;20389;-83
2022/07/11 03:58:05;;;;;;;36.67;34.60;;;;;;;22.61;43.54;102289.03;4956006;28;20035;-76
2022/07/11 04:00:31;;;;;;;36.20;34.08;;;;;;;22.60;43.17;102284.63;4956149;28;20455;-84
2022/07/11 04:02:57;;;;;;;37.92;35.78;;;;;;;22.58;43.71;102288.75;4956087;28;20109;-83
2022/07/11 04:05:23;;;;;;;37.35;35.25;;;;;;;22.57;43.28;102285.19;4956268;28;20031;-83
2022/07/11 04:07:48;;;;;;;38.75;36.53;;;;;;;22.56;43.65;102277.22;4956770;28;20038;-83
2022/07/11 04:10:14;;;;;;;37.38;35.17;;;;;;;22.54;43.63;102279.44;4956128;28;20051;-81
2022/07/11 04:12:40;;;;;;;35.83;33.92;;;;;;;22.53;43.49;102280.53;4954911;29;20066;-84
2022/07/11 04:15:06;;;;;;;41.67;39.00;;;;;;;22.51;43.54;102289.09;4956483;28;20042;-78
2022/07/11 04:17:31;;;;;;;36.97;34.78;;;;;;;22.50;43.73;102284.66;4957670;28;20027;-83
2022/07/11 04:19:57;;;;;;;38.25;36.15;;;;;;;22.49;43.76;102282.22;4970521;28;20031;-81
2022/07/11 04:22:23;;;;;;;38.42;36.22;;;;;;;22.47;43.34;102283.31;4955512;28;20480;-80
2022/07/11 04:24:48;;;;;;;35.03;33.13;;;;;;;22.45;43.66;102285.56;4955679;28;20043;-82
2022/07/11 04:27:13;;;;;;;37.75;35.75;;;;;;;22.45;43.63;102284.72;4955743;28;20027;-84
2022/07/11 04:29:39;;;;;;;36.40;34.40;;;;;;;22.43;43.73;102284.19;4954593;29;20388;-82
2022/07/11 04:32:05;;;;;;;35.47;33.63;;;;;;;22.42;43.53;102286.09;4970540;28;20038;-82
2022/07/11 04:34:31;;;;;;;35.50;33.70;;;;;;;22.40;43.44;102288.34;4955403;28;20035;-83
2022/07/11 04:36:56;;;;;;;36.83;34.90;;;;;;;22.40;43.94;102282.84;4955654;28;20042;-80
2022/07/11 04:39:22;;;;;;;35.78;33.97;;;;;;;22.38;44.02;102290.56;4970874;28;20125;-83
2022/07/11 04:41:48;;;;;;;34.72;32.83;;;;;;;22.37;43.64;102279.81;4955915;28;20512;-82
2022/07/11 04:44:13;;;;;;;35.70;33.83;;;;;;;22.36;43.56;102280.94;4955816;28;20589;-82
2022/07/11 04:46:38;;;;;;;37.10;34.70;;;;;;;22.35;43.97;102290.28;4970243;28;20035;-83
2022/07/11 04:49:04;;;;;;;37.47;35.38;;;;;;;22.33;43.88;102293.34;4955609;28;20031;-81
2022/07/11 04:51:29;;;;;;;35.35;33.42;;;;;;;22.33;43.85;102289.78;4955600;28;20031;-77
2022/07/11 04:53:54;;;;;;;35.55;33.72;;;;;;;22.32;44.05;102290.84;4954140;28;20032;-83
2022/07/11 04:56:20;;;;;;;37.60;35.60;;;;;;;22.30;43.91;102302.16;4969805;28;20043;-81
2022/07/11 04:58:45;;;;;;;35.15;33.25;;;;;;;22.29;44.01;102306.00;4954087;29;20031;-82
2022/07/11 05:01:11;;;;;;;35.58;33.78;;;;;;;22.29;44.36;102302.44;4955076;28;20035;-76
2022/07/11 05:03:37;;;;;;;36.22;34.10;;;;;;;22.27;43.95;102310.97;4970089;28;20094;-83
2022/07/11 05:06:04;;;;;;;34.70;33.00;;;;;;;22.26;44.27;102309.34;4955240;28;20031;-81
2022/07/11 05:08:30;;;;;;;35.88;33.97;;;;;;;22.23;44.03;102305.22;4955588;28;20417;-84
2022/07/11 05:10:56;;;;;;;35.50;33.60;;;;;;;22.23;44.26;102309.91;4955443;28;20046;-83
2022/07/11 05:13:21;;;;;;;36.25;34.33;;;;;;;22.22;44.10;102302.75;4955038;28;20046;-83
2022/07/11 05:15:47;;;;;;;37.85;35.75;;;;;;;22.21;44.36;102312.13;4955371;28;20404;-82
2022/07/11 05:18:13;;;;;;;34.95;33.15;;;;;;;22.20;44.50;102314.06;4955011;28;20035;-79
2022/07/11 05:20:38;;;;;;;35.80;33.90;;;;;;;22.19;44.48;102306.03;4954116;28;20375;-83
2022/07/11 05:23:04;;;;;;;35.58;33.72;;;;;;;22.19;44.36;102319.81;4955424;28;20031;-82
2022/07/11 05:25:29;;;;;;;37.53;35.53;;;;;;;22.16;44.05;102304.69;4954990;28;20101;-84
2022/07/11 05:27:55;;;;;;;36.20;34.00;;;;;;;22.16;44.52;102314.88;4954870;29;20046;-84
2022/07/11 05:30:21;;;;;;;35.50;33.65;;;;;;;22.15;44.54;102321.47;4954913;28;20385;-83
2022/07/11 05:32:46;;;;;;;35.30;33.40;;;;;;;22.15;44.14;102315.97;4954926;28;20031;-82
2022/07/11 05:35:11;;;;;;;35.47;33.03;;;;;;;22.13;44.20;102308.00;4955614;28;20063;-83
2022/07/11 05:37:37;;;;;;;36.00;34.10;;;;;;;22.12;44.14;102317.34;4954822;28;20063;-85
2022/07/11 05:40:03;;;;;;;36.70;34.70;;;;;;;22.12;44.48;102319.28;4955597;28;20048;-91
2022/07/11 05:42:28;;;;;;;35.70;33.90;;;;;;;22.11;44.35;102323.16;4957529;28;20376;-82
2022/07/11 05:44:54;;;;;;;35.53;33.33;;;;;;;22.10;44.01;102321.50;4959323;28;20109;-90
2022/07/11 05:47:20;;;;;;;35.67;33.78;;;;;;;22.10;44.31;102318.72;4958861;28;20031;-82
2022/07/11 05:49:45;;;;;;;36.40;34.40;;;;;;;22.09;44.73;102320.66;4958217;28;20035;-83
2022/07/11 05:52:10;;;;;;;36.60;34.40;;;;;;;22.08;44.17;102318.22;4958076;28;20436;-85
2022/07/11 05:54:36;;;;;;;37.75;34.90;;;;;;;22.07;44.21;102325.63;4958700;28;20030;-85
2022/07/11 05:57:02;;;;;;;35.15;33.20;;;;;;;22.06;44.65;102329.50;4956638;29;20083;-84
2022/07/11 05:59:28;;;;;;;35.17;33.17;;;;;;;22.06;44.80;102335.00;4958457;28;20046;-83
2022/07/11 06:01:53;;;;;;;38.08;35.00;;;;;;;22.05;44.36;102330.63;4958143;28;20035;-83
2022/07/11 06:04:19;;;;;;;34.55;32.67;;;;;;;22.04;44.30;102328.94;4958551;28;20063;-75
2022/07/11 06:06:44;;;;;;;35.20;33.22;;;;;;;22.04;44.44;102321.50;4973621;28;20444;-83
2022/07/11 06:09:09;;;;;;;35.20;33.30;;;;;;;22.03;44.31;102322.63;4956656;29;20051;-85
2022/07/11 06:11:35;;;;;;;34.78;32.92;;;;;;;22.02;44.71;102320.16;4972886;28;20047;-87
2022/07/11 06:14:00;;;;;;;36.17;34.08;;;;;;;22.02;44.32;102325.66;4957006;29;20547;-82
2022/07/11 06:16:26;;;;;;;37.20;34.95;;;;;;;22.01;44.27;102332.28;4957929;28;20357;-85
2022/07/11 06:18:52;;;;;;;35.30;32.95;;;;;;;22.01;44.98;102333.09;4957568;28;20501;-86
2022/07/11 06:21:17;;;;;;;36.10;33.83;;;;;;;22.00;44.90;102336.97;4972995;28;20031;-85
2022/07/11 06:23:42;;;;;;;37.28;35.17;;;;;;;21.99;44.64;102329.78;4972701;28;20035;-83
2022/07/11 06:26:08;;;;;;;36.38;34.20;;;;;;;21.98;44.67;102336.41;4957896;28;20077;-82
2022/07/11 06:28:34;;;;;;;39.78;36.92;;;;;;;21.98;45.12;102333.66;4958200;28;20035;-82
2022/07/11 06:31:00;;;;;;;37.40;35.05;;;;;;;21.98;45.29;102336.41;4957509;28;20078;-84
2022/07/11 06:33:25;;;;;;;37.38;35.28;;;;;;;21.97;45.00;102343.03;4956842;28;20038;-80
2022/07/11 06:35:51;;;;;;;38.70;36.40;;;;;;;21.97;44.79;102337.53;4958849;28;20110;-86
2022/07/11 06:38:17;;;;;;;36.70;34.30;;;;;;;21.97;45.19;102337.53;4957616;28;20039;-78
2022/07/11 06:40:42;;;;;;;38.10;35.80;;;;;;;21.97;44.99;102343.03;4957100;28;20062;-80
2022/07/11 06:43:09;;;;;;;36.28;34.25;;;;;;;21.97;45.42;102333.94;4956815;28;20105;-78
2022/07/11 06:45:35;;;;;;;37.17;35.03;;;;;;;21.96;45.19;102337.78;4957253;28;20035;-80
2022/07/11 06:48:00;;;;;;;36.25;33.97;;;;;;;21.95;45.07;102331.47;4956711;28;20045;-77
2022/07/11 06:50:26;;;;;;;36.58;34.47;;;;;;;21.95;45.41;102331.47;4956610;28;20422;-79
2022/07/11 06:52:51;;;;;;;38.30;36.03;;;;;;;21.95;45.08;102330.66;4956532;28;20441;-76
2022/07/11 06:55:17;;;;;;;37.83;35.65;;;;;;;21.95;45.12;102325.97;4972033;28;20556;-74
2022/07/11 06:57:42;;;;;;;37.30;35.13;;;;;;;21.94;45.27;102326.25;4956457;28;20031;-77
2022/07/11 07:00:09;;;;;;;36.35;34.15;;;;;;;21.94;45.20;102329.00;4956684;28;20037;-78
2022/07/11 07:02:35;;;;;;;38.90;36.47;;;;;;;21.95;45.57;102327.91;4956967;28;20047;-78
2022/07/11 07:05:01;;;;;;;37.92;35.63;;;;;;;21.94;45.66;102329.00;4956604;28;20476;-78
2022/07/11 07:07:27;;;;;;;38.63;36.28;;;;;;;21.94;45.86;102324.31;4956289;28;20027;-78
2022/07/11 07:09:54;;;;;;;37.38;34.67;;;;;;;21.93;45.62;102325.44;4956393;28;20407;-84
2022/07/11 07:12:20;;;;;;;38.33;36.03;;;;;;;21.92;46.10;102326.50;4956385;28;20100;-78
2022/07/11 07:14:46;;;;;;;36.63;34.58;;;;;;;21.93;45.52;102327.34;4956197;28;20516;-79
2022/07/11 07:17:11;;;;;;;35.40;33.38;;;;;;;21.92;45.91;102320.19;4956241;28;20031;-79
2022/07/11 07:19:37;;;;;;;36.33;34.33;;;;;;;21.92;45.54;102311.94;4955701;28;20035;-77
2022/07/11 07:22:02;;;;;;;35.17;33.33;;;;;;;21.92;45.72;102317.44;4956657;28;20086;-77
2022/07/11 07:24:28;;;;;;;35.97;33.75;;;;;;;21.91;45.95;102319.38;4955702;28;20032;-79
2022/07/11 07:26:53;;;;;;;35.10;32.90;;;;;;;21.92;45.46;102320.19;4956019;28;20046;-76
2022/07/11 07:29:19;;;;;;;36.10;34.20;;;;;;;21.91;45.82;102318.56;4955787;28;20031;-76
2022/07/11 07:31:44;;;;;;;37.03;34.88;;;;;;;21.91;45.48;102311.13;4955544;28;20067;-76
2022/07/11 07:34:10;;;;;;;34.72;32.92;;;;;;;21.92;45.60;102320.19;4956016;28;20036;-77
2022/07/11 07:36:36;;;;;;;36.35;34.35;;;;;;;21.91;45.87;102324.88;4955808;28;20028;-78
2022/07/11 07:39:02;;;;;;;35.80;33.70;;;;;;;21.91;45.43;102322.13;4955504;28;20042;-76
2022/07/11 07:41:27;;;;;;;36.45;34.53;;;;;;;21.92;46.16;102326.50;4955124;28;20396;-76
2022/07/11 07:43:53;;;;;;;37.83;35.22;;;;;;;21.92;46.40;102331.19;4955525;28;20027;-77
2022/07/11 07:46:19;;;;;;;35.72;33.53;;;;;;;21.92;46.33;102332.00;4955462;28;20036;-78
2022/07/11 07:48:44;;;;;;;36.97;34.75;;;;;;;21.92;45.94;102325.69;4970424;28;20027;-77
2022/07/11 07:51:10;;;;;;;36.45;34.05;;;;;;;21.93;46.64;102322.66;4955911;28;20126;-80
2022/07/11 07:53:35;;;;;;;35.85;33.85;;;;;;;21.92;46.62;102332.00;4956252;28;20050;-78
2022/07/11 07:56:01;;;;;;;36.78;34.78;;;;;;;21.92;46.18;102332.00;4954258;29;20042;-80
2022/07/11 07:58:26;;;;;;;34.80;32.90;;;;;;;21.93;46.14;102341.13;4954299;29;20047;-75
2022/07/11 08:03:40;;;;;;;35.47;33.47;;;;;;;21.94;45.81;102337.25;4954258;28;20066;-78
2022/07/11 08:06:06;;;;;;;34.85;33.03;;;;;;;21.94;46.16;102338.06;4954999;28;20038;-82
2022/07/11 08:08:31;;;;;;;34.35;32.47;;;;;;;21.94;46.31;102343.56;4953905;29;20114;-83
2022/07/11 08:11:00;;;;;;;37.40;35.42;;;;;;;21.94;46.22;102340.00;4955800;28;20444;-83
2022/07/11 08:13:26;;;;;;;36.03;33.72;;;;;;;21.94;46.54;102331.75;4955189;28;20032;-78
2022/07/11 08:15:51;;;;;;;35.80;33.67;;;;;;;21.94;46.37;102340.81;4954722;28;20113;-80
2022/07/11 08:18:16;;;;;;;36.35;34.35;;;;;;;21.95;46.51;102336.97;4954025;29;20596;-76
2022/07/11 08:20:42;;;;;;;36.95;34.70;;;;;;;21.95;46.54;102342.47;4954894;28;20035;-83
2022/07/11 08:23:07;;;;;;;36.10;34.10;;;;;;;21.95;46.85;102342.47;4954691;28;20043;-82
2022/07/11 08:25:32;;;;;;;35.85;33.95;;;;;;;21.96;46.31;102338.63;4953450;29;20064;-79
2022/07/11 08:27:58;;;;;;;36.63;34.42;;;;;;;21.96;46.62;102344.13;4955051;28;20126;-76
2022/07/11 08:30:25;;;;;;;35.42;33.58;;;;;;;21.98;46.54;102352.09;4954648;28;20395;-81
2022/07/11 08:32:51;;;;;;;40.20;37.92;;;;;;;21.98;46.58;102352.09;4954541;28;20035;-81
2022/07/11 08:35:16;;;;;;;37.10;35.17;;;;;;;21.98;46.58;102352.91;4954836;28;20043;-83
2022/07/11 08:37:42;;;;;;;35.65;33.53;;;;;;;21.99;46.68;102342.72;4953674;29;20039;-81
2022/07/11 08:40:07;;;;;;;37.25;34.95;;;;;;;21.99;46.58;102337.22;4954646;28;20031;-81
2022/07/11 08:42:39;;;;;;;38.00;35.92;;;;;;;22.00;47.22;102336.13;4954508;28;20476;-80
2022/07/11 08:45:06;;;;;;;36.28;34.13;;;;;;;22.01;46.90;102337.78;4954983;28;20035;-80
2022/07/11 08:47:32;;;;;;;36.75;34.60;;;;;;;22.02;47.21;102333.91;4954638;28;20130;-82
2022/07/11 08:49:59;;;;;;;39.00;36.50;;;;;;;22.02;47.50;102339.41;4954773;28;20043;-82
2022/07/11 08:52:24;;;;;;;36.70;34.70;;;;;;;22.03;47.26;102341.06;4954823;28;20182;-79
2022/07/11 08:54:51;;;;;;;37.10;35.03;;;;;;;22.03;47.56;102338.31;4954468;28;20114;-78
2022/07/11 08:57:17;;;;;;;36.85;34.72;;;;;;;22.04;47.51;102339.97;4955101;28;20042;-80
2022/07/11 08:59:47;;;;;;;39.35;37.05;;;;;;;22.05;47.82;102341.63;4954813;28;20031;-74
2022/07/11 09:02:13;;;;;;;36.55;34.65;;;;;;;22.06;47.29;102343.25;4954872;28;20074;-80
2022/07/11 09:04:39;;;;;;;38.85;36.55;;;;;;;22.07;47.44;102338.56;4954284;28;20035;-79
2022/07/11 09:07:05;;;;;;;37.45;35.22;;;;;;;22.08;47.47;102345.75;4954311;28;20491;-82
2022/07/11 09:09:31;;;;;;;36.42;34.33;;;;;;;22.08;47.25;102338.28;4954774;28;20058;-75
2022/07/11 09:11:58;;;;;;;38.58;35.80;;;;;;;22.09;47.95;102336.38;4954652;28;20114;-77
2022/07/11 09:14:31;;;;;;;36.67;34.50;;;;;;;22.10;47.63;102338.00;4954319;28;20035;-79
2022/07/11 09:17:04;;;;;;;37.60;35.40;;;;;;;22.10;47.34;102327.84;4957832;28;20039;-79
2022/07/11 09:19:32;;;;;;;38.38;36.28;;;;;;;22.12;47.75;102333.03;4958341;28;20069;-78
2022/07/11 09:28:04;;;;;;;37.13;35.03;;;;;;;22.14;47.73;102330.84;4958427;29;20042;-78
2022/07/11 09:30:43;;;;;;;37.53;35.33;;;;;;;22.16;48.09;102337.72;4958568;28;20094;-71
2022/07/11 09:33:10;;;;;;;36.13;34.22;;;;;;;22.16;48.28;102337.72;4958481;28;20035;-80
2022/07/11 09:35:39;;;;;;;38.05;35.58;;;;;;;22.19;48.40;102339.91;4958433;28;20046;-80
2022/07/11 09:38:06;;;;;;;38.03;35.70;;;;;;;22.19;48.47;102337.16;4957803;28;20464;-82
2022/07/11 09:40:32;;;;;;;37.40;35.40;;;;;;;22.22;48.53;102333.03;4957906;28;20035;-84
2022/07/11 09:42:59;;;;;;;36.80;34.88;;;;;;;22.24;48.29;102334.38;4957984;28;20039;-79
2022/07/11 09:45:26;;;;;;;36.70;34.70;;;;;;;22.24;48.04;102331.63;4972983;28;20365;-83
2022/07/11 09:48:09;;;;;;;38.43;36.03;;;;;;;22.28;48.22;102329.16;4957799;28;20039;-79
2022/07/11 09:50:34;;;;;;;39.75;37.03;;;;;;;22.28;48.11;102329.16;4957786;28;20035;-82
2022/07/11 09:53:11;;;;;;;39.53;37.30;;;;;;;22.30;48.64;102324.19;4956663;29;20039;-82
2022/07/11 09:55:46;;;;;;;37.13;34.83;;;;;;;22.33;48.18;102322.81;4958619;28;20031;-81
2022/07/11 09:58:15;;;;;;;37.38;35.08;;;;;;;22.36;48.64;102328.56;4957968;28;20031;-82
2022/07/11 10:00:43;;;;;;;39.13;36.42;;;;;;;22.38;48.50;102329.09;4957430;28;20031;-82
2022/07/11 10:03:11;;;;;;;38.07;35.77;;;;;;;22.39;48.08;102330.72;4957970;28;20380;-81
2022/07/11 10:05:36;;;;;;;39.58;37.38;;;;;;;22.41;48.09;102331.28;4957503;28;20031;-79
2022/07/11 10:08:04;;;;;;;38.10;35.97;;;;;;;22.45;48.51;102324.09;4958285;28;20035;-82
2022/07/11 10:10:31;;;;;;;38.25;36.03;;;;;;;22.48;48.42;102322.72;4958224;28;20055;-84
2022/07/11 10:12:57;;;;;;;37.45;35.25;;;;;;;22.52;48.08;102321.00;4957508;28;20039;-85
2022/07/11 10:15:28;;;;;;;38.13;35.90;;;;;;;22.55;47.61;102325.94;4972713;28;20065;-83
2022/07/11 10:18:02;;;;;;;39.85;37.67;;;;;;;22.59;47.56;102324.28;4957151;28;20031;-81
2022/07/11 10:21:12;;;;;;;38.85;36.67;;;;;;;22.63;47.66;102321.78;4957184;28;20035;-83
2022/07/11 10:23:43;;;;;;;37.53;35.30;;;;;;;22.66;46.84;102330.28;4954782;29;20058;-74
2022/07/11 10:26:39;;;;;;;37.22;35.05;;;;;;;22.69;47.36;102329.72;4957220;28;20130;-80
2022/07/11 10:29:45;;;;;;;38.65;36.55;;;;;;;22.76;47.63;102328.59;4957409;28;20066;-79
2022/07/11 10:32:11;;;;;;;38.88;36.63;;;;;;;22.78;47.32;102335.44;4957911;28;20110;-80
2022/07/11 10:34:37;;;;;;;40.35;38.05;;;;;;;22.82;46.96;102332.94;4956710;28;20081;-80
2022/07/11 10:37:04;;;;;;;39.47;36.95;;;;;;;22.87;46.89;102330.13;4956922;28;20379;-80
2022/07/11 10:39:34;;;;;;;39.67;37.47;;;;;;;22.93;47.36;102328.16;4956905;28;20151;-79
2022/07/11 10:42:01;;;;;;;39.20;36.90;;;;;;;22.97;46.87;102327.34;4956868;28;20058;-80
2022/07/11 10:44:47;;;;;;;38.22;36.13;;;;;;;23.02;46.79;102332.81;4956497;28;20047;-80
2022/07/11 10:47:42;;;;;;;38.85;36.70;;;;;;;23.08;46.84;102339.09;4957389;29;20127;-79
2022/07/11 10:50:31;;;;;;;38.83;36.78;;;;;;;23.12;47.11;102326.38;4956758;28;20472;-82
2022/07/11 10:53:00;;;;;;;41.42;39.22;;;;;;;23.16;46.40;102323.84;4955726;28;20075;-81
2022/07/11 10:55:28;;;;;;;38.90;36.90;;;;;;;23.21;46.37;102327.41;4956952;28;20031;-81
2022/07/11 10:58:10;;;;;;;40.92;38.80;;;;;;;23.27;46.21;102328.19;4957099;28;20420;-82
2022/07/11 11:00:36;;;;;;;40.72;38.47;;;;;;;23.32;46.32;102326.19;4956548;28;20039;-82
2022/07/11 11:03:11;;;;;;;38.90;36.90;;;;;;;23.37;46.48;102327.25;4957356;28;20031;-79
2022/07/11 11:05:48;;;;;;;41.78;39.47;;;;;;;23.43;46.43;102326.09;4956012;28;20070;-80
2022/07/11 11:08:41;;;;;;;41.25;38.92;;;;;;;23.47;46.46;102319.69;4958987;28;20160;-81
2022/07/11 11:11:35;;;;;;;39.50;37.20;;;;;;;23.52;46.74;102318.84;4960134;28;20047;-81
2022/07/11 11:14:15;;;;;;;41.92;39.72;;;;;;;23.59;46.47;102312.97;4956491;28;20051;-80
2022/07/11 11:16:41;;;;;;;40.83;38.63;;;;;;;23.63;46.52;102327.81;4958770;28;20085;-78
2022/07/11 11:19:06;;;;;;;41.55;39.35;;;;;;;23.66;46.40;102328.06;4961376;28;20039;-80